KCKV/CKV METAR and TAF weather

Enter ICAO airport designator
Station Type Date Time Source
KCKV METAR 2020/04/07 03:52 UTC NOAA

KCKV 070352Z AUTO 00000KT 10SM CLR 19/12 A2999 RMK AO2 SLP151 T01940122


Station Type Date Time Source
KCKV Decoded METAR 2020/04/07 03:52 UTC NOAA

CLARKSVILLE OUTLAW FIELD, TN, United States (KCKV) 36-37N 87-25W 165M
Apr 06, 2020 - 11:52 PM EDT / 2020.04.07 0352 UTC
Wind: Calm:0
Visibility: 10 mile(s):0
Sky conditions: clear
Temperature: 66.9 F (19.4 C)
Dew Point: 54.0 F (12.2 C)
Relative Humidity: 63%
Pressure (altimeter): 29.99 in. Hg (1015 hPa)
ob: KCKV 070352Z AUTO 00000KT 10SM CLR 19/12 A2999 RMK AO2 SLP151 T01940122
cycle: 4

Station Type Date Time Source
KCKV TAF 2020/04/06 18:42 UTC NOAA

TAF KCKV 061740Z 0618/0718 VRB04KT P6SM FEW040
FM062200 21005KT P6SM VCSH SCT040
FM070100 19004KT P6SM FEW080 SCT250
FM071400 23011KT P6SM BKN025

Example: see airport list